sensor_id;sensor_type;location;lat;lon;timestamp;temperature;humidity
506;DHT22;551;48.524;9.056;2023-08-12T00:00:21;20.90;1.00
506;DHT22;551;48.524;9.056;2023-08-12T00:02:47;20.90;1.00
506;DHT22;551;48.524;9.056;2023-08-12T00:05:12;20.80;1.00
506;DHT22;551;48.524;9.056;2023-08-12T00:07:39;20.80;1.00
506;DHT22;551;48.524;9.056;2023-08-12T00:10:07;20.80;1.00
506;DHT22;551;48.524;9.056;2023-08-12T00:12:34;20.80;1.00
506;DHT22;551;48.524;9.056;2023-08-12T00:15:00;20.70;1.00
506;DHT22;551;48.524;9.056;2023-08-12T00:17:25;20.70;1.00
506;DHT22;551;48.524;9.056;2023-08-12T00:19:51;20.70;1.00
506;DHT22;551;48.524;9.056;2023-08-12T00:22:16;20.70;1.00
506;DHT22;551;48.524;9.056;2023-08-12T00:24:42;20.60;1.00
506;DHT22;551;48.524;9.056;2023-08-12T00:27:08;20.60;1.00
506;DHT22;551;48.524;9.056;2023-08-12T00:29:34;20.50;1.00
506;DHT22;551;48.524;9.056;2023-08-12T00:32:00;20.50;1.00
506;DHT22;551;48.524;9.056;2023-08-12T00:34:26;20.50;1.00
506;DHT22;551;48.524;9.056;2023-08-12T00:36:51;20.50;1.00
506;DHT22;551;48.524;9.056;2023-08-12T00:39:17;20.40;1.00
506;DHT22;551;48.524;9.056;2023-08-12T00:41:42;20.40;1.00
506;DHT22;551;48.524;9.056;2023-08-12T00:44:08;20.40;1.00
506;DHT22;551;48.524;9.056;2023-08-12T00:46:34;20.30;1.00
506;DHT22;551;48.524;9.056;2023-08-12T00:49:00;20.30;1.00
506;DHT22;551;48.524;9.056;2023-08-12T00:51:26;20.30;1.00
506;DHT22;551;48.524;9.056;2023-08-12T00:53:52;20.20;1.00
506;DHT22;551;48.524;9.056;2023-08-12T00:56:18;20.20;1.00
506;DHT22;551;48.524;9.056;2023-08-12T00:58:45;20.10;1.00
506;DHT22;551;48.524;9.056;2023-08-12T01:01:11;20.10;1.00
506;DHT22;551;48.524;9.056;2023-08-12T01:03:37;20.10;1.00
506;DHT22;551;48.524;9.056;2023-08-12T01:06:03;20.10;1.00
506;DHT22;551;48.524;9.056;2023-08-12T01:08:30;20.00;1.00
506;DHT22;551;48.524;9.056;2023-08-12T01:11:06;20.00;1.00
506;DHT22;551;48.524;9.056;2023-08-12T01:13:57;20.00;1.00
506;DHT22;551;48.524;9.056;2023-08-12T01:16:26;19.90;1.00
506;DHT22;551;48.524;9.056;2023-08-12T01:18:54;19.80;1.00
506;DHT22;551;48.524;9.056;2023-08-12T01:21:21;19.80;1.00
506;DHT22;551;48.524;9.056;2023-08-12T01:23:50;19.80;1.00
506;DHT22;551;48.524;9.056;2023-08-12T01:26:15;19.80;1.00
506;DHT22;551;48.524;9.056;2023-08-12T01:28:41;19.70;1.00
506;DHT22;551;48.524;9.056;2023-08-12T01:36:29;19.60;1.00
506;DHT22;551;48.524;9.056;2023-08-12T01:38:59;19.60;1.00
506;DHT22;551;48.524;9.056;2023-08-12T01:41:25;19.60;1.00
506;DHT22;551;48.524;9.056;2023-08-12T01:43:51;19.60;1.00
506;DHT22;551;48.524;9.056;2023-08-12T01:46:17;19.60;1.00
506;DHT22;551;48.524;9.056;2023-08-12T01:48:43;19.60;1.00
506;DHT22;551;48.524;9.056;2023-08-12T01:51:08;19.60;1.00
506;DHT22;551;48.524;9.056;2023-08-12T01:53:34;19.60;1.00
506;DHT22;551;48.524;9.056;2023-08-12T01:55:59;19.60;1.00
506;DHT22;551;48.524;9.056;2023-08-12T01:58:25;19.70;1.00
506;DHT22;551;48.524;9.056;2023-08-12T02:00:52;19.60;1.00
506;DHT22;551;48.524;9.056;2023-08-12T02:03:17;19.70;1.00
506;DHT22;551;48.524;9.056;2023-08-12T02:05:43;19.80;1.00
506;DHT22;551;48.524;9.056;2023-08-12T02:08:09;19.70;1.00
506;DHT22;551;48.524;9.056;2023-08-12T02:10:34;19.80;1.00
506;DHT22;551;48.524;9.056;2023-08-12T02:13:00;19.70;1.00
506;DHT22;551;48.524;9.056;2023-08-12T02:15:25;19.80;1.00
506;DHT22;551;48.524;9.056;2023-08-12T02:17:51;19.70;1.00
506;DHT22;551;48.524;9.056;2023-08-12T02:20:16;19.70;1.00
506;DHT22;551;48.524;9.056;2023-08-12T02:22:43;19.70;1.00
506;DHT22;551;48.524;9.056;2023-08-12T02:25:08;19.70;1.00
506;DHT22;551;48.524;9.056;2023-08-12T02:27:34;19.70;1.00
506;DHT22;551;48.524;9.056;2023-08-12T02:29:59;19.70;1.00
506;DHT22;551;48.524;9.056;2023-08-12T02:32:24;19.70;1.00
506;DHT22;551;48.524;9.056;2023-08-12T02:34:50;19.70;1.00
506;DHT22;551;48.524;9.056;2023-08-12T02:37:15;19.70;1.00
506;DHT22;551;48.524;9.056;2023-08-12T02:39:42;19.70;1.00
506;DHT22;551;48.524;9.056;2023-08-12T02:42:07;19.80;1.00
506;DHT22;551;48.524;9.056;2023-08-12T02:44:33;19.70;1.00
506;DHT22;551;48.524;9.056;2023-08-12T02:46:58;20.40;1.00
506;DHT22;551;48.524;9.056;2023-08-12T02:49:24;19.80;1.00
506;DHT22;551;48.524;9.056;2023-08-12T02:51:49;19.80;1.00
506;DHT22;551;48.524;9.056;2023-08-12T02:54:15;19.80;1.00
506;DHT22;551;48.524;9.056;2023-08-12T02:56:40;19.80;1.00
506;DHT22;551;48.524;9.056;2023-08-12T02:59:06;19.90;1.00
506;DHT22;551;48.524;9.056;2023-08-12T03:01:31;19.90;1.00
506;DHT22;551;48.524;9.056;2023-08-12T03:03:57;20.00;1.00
506;DHT22;551;48.524;9.056;2023-08-12T03:06:22;19.90;1.00
506;DHT22;551;48.524;9.056;2023-08-12T03:08:48;20.00;1.00
506;DHT22;551;48.524;9.056;2023-08-12T03:11:13;20.00;1.00
506;DHT22;551;48.524;9.056;2023-08-12T03:13:39;20.00;1.00
506;DHT22;551;48.524;9.056;2023-08-12T03:16:04;20.00;1.00
506;DHT22;551;48.524;9.056;2023-08-12T03:18:30;19.90;1.00
506;DHT22;551;48.524;9.056;2023-08-12T03:20:55;19.90;1.00
506;DHT22;551;48.524;9.056;2023-08-12T03:23:21;19.90;1.00
506;DHT22;551;48.524;9.056;2023-08-12T03:25:47;19.90;1.00
506;DHT22;551;48.524;9.056;2023-08-12T03:28:13;19.80;1.00
506;DHT22;551;48.524;9.056;2023-08-12T03:30:39;19.80;1.00
506;DHT22;551;48.524;9.056;2023-08-12T03:33:04;19.80;1.00
506;DHT22;551;48.524;9.056;2023-08-12T03:35:30;19.70;1.00
506;DHT22;551;48.524;9.056;2023-08-12T03:37:55;19.70;1.00
506;DHT22;551;48.524;9.056;2023-08-12T03:40:21;19.70;1.00
506;DHT22;551;48.524;9.056;2023-08-12T03:42:46;19.70;1.00
506;DHT22;551;48.524;9.056;2023-08-12T03:45:12;19.70;1.00
506;DHT22;551;48.524;9.056;2023-08-12T03:47:37;19.70;1.00
506;DHT22;551;48.524;9.056;2023-08-12T03:50:03;19.80;1.00
506;DHT22;551;48.524;9.056;2023-08-12T03:52:29;19.80;1.00
506;DHT22;551;48.524;9.056;2023-08-12T03:54:54;19.80;1.00
506;DHT22;551;48.524;9.056;2023-08-12T03:57:20;20.00;1.00
506;DHT22;551;48.524;9.056;2023-08-12T03:59:45;20.00;1.00
506;DHT22;551;48.524;9.056;2023-08-12T04:02:11;20.10;1.00
506;DHT22;551;48.524;9.056;2023-08-12T04:04:36;20.00;1.00
506;DHT22;551;48.524;9.056;2023-08-12T04:07:02;20.00;1.00
506;DHT22;551;48.524;9.056;2023-08-12T04:09:27;20.10;1.00
506;DHT22;551;48.524;9.056;2023-08-12T04:11:53;20.10;1.00
506;DHT22;551;48.524;9.056;2023-08-12T04:14:19;20.10;1.00
506;DHT22;551;48.524;9.056;2023-08-12T04:16:44;20.10;1.00
506;DHT22;551;48.524;9.056;2023-08-12T04:19:10;20.10;1.00
506;DHT22;551;48.524;9.056;2023-08-12T04:21:35;20.10;1.00
506;DHT22;551;48.524;9.056;2023-08-12T04:24:01;20.20;1.00
506;DHT22;551;48.524;9.056;2023-08-12T04:26:26;20.10;1.00
506;DHT22;551;48.524;9.056;2023-08-12T04:28:52;20.20;1.00
506;DHT22;551;48.524;9.056;2023-08-12T04:31:17;20.20;1.00
506;DHT22;551;48.524;9.056;2023-08-12T04:33:43;20.10;1.00
506;DHT22;551;48.524;9.056;2023-08-12T04:36:09;20.10;1.00
506;DHT22;551;48.524;9.056;2023-08-12T04:38:34;20.10;1.00
506;DHT22;551;48.524;9.056;2023-08-12T04:41:00;20.10;1.00
506;DHT22;551;48.524;9.056;2023-08-12T04:43:26;20.10;1.00
506;DHT22;551;48.524;9.056;2023-08-12T04:45:52;20.10;1.00
506;DHT22;551;48.524;9.056;2023-08-12T04:48:17;20.10;1.00
506;DHT22;551;48.524;9.056;2023-08-12T04:50:43;20.10;1.00
506;DHT22;551;48.524;9.056;2023-08-12T04:53:08;20.20;1.00
506;DHT22;551;48.524;9.056;2023-08-12T04:55:35;20.30;1.00
506;DHT22;551;48.524;9.056;2023-08-12T04:58:01;20.30;1.00
506;DHT22;551;48.524;9.056;2023-08-12T05:00:28;20.40;1.00
506;DHT22;551;48.524;9.056;2023-08-12T05:02:53;20.40;1.00
506;DHT22;551;48.524;9.056;2023-08-12T05:05:19;20.50;1.00
506;DHT22;551;48.524;9.056;2023-08-12T05:07:44;20.50;1.00
506;DHT22;551;48.524;9.056;2023-08-12T05:10:16;20.60;1.00
506;DHT22;551;48.524;9.056;2023-08-12T05:12:43;20.70;1.00
506;DHT22;551;48.524;9.056;2023-08-12T05:15:09;20.70;1.00
506;DHT22;551;48.524;9.056;2023-08-12T05:17:35;20.70;1.00
506;DHT22;551;48.524;9.056;2023-08-12T05:20:00;20.70;1.00
506;DHT22;551;48.524;9.056;2023-08-12T05:22:26;20.80;1.00
506;DHT22;551;48.524;9.056;2023-08-12T05:24:51;20.90;1.00
506;DHT22;551;48.524;9.056;2023-08-12T05:27:17;21.00;1.00
506;DHT22;551;48.524;9.056;2023-08-12T05:29:42;21.00;1.00
506;DHT22;551;48.524;9.056;2023-08-12T05:32:08;21.10;1.00
506;DHT22;551;48.524;9.056;2023-08-12T05:34:33;21.20;1.00
506;DHT22;551;48.524;9.056;2023-08-12T05:36:59;21.20;1.00
506;DHT22;551;48.524;9.056;2023-08-12T05:39:24;21.30;1.00
506;DHT22;551;48.524;9.056;2023-08-12T05:41:51;21.40;1.00
506;DHT22;551;48.524;9.056;2023-08-12T05:44:17;21.40;1.00
506;DHT22;551;48.524;9.056;2023-08-12T05:46:43;21.50;1.00
506;DHT22;551;48.524;9.056;2023-08-12T05:49:08;21.60;1.00
506;DHT22;551;48.524;9.056;2023-08-12T05:51:35;22.00;1.00
506;DHT22;551;48.524;9.056;2023-08-12T05:54:00;22.40;1.00
506;DHT22;551;48.524;9.056;2023-08-12T05:56:26;22.60;1.00
506;DHT22;551;48.524;9.056;2023-08-12T05:58:51;22.70;1.00
506;DHT22;551;48.524;9.056;2023-08-12T06:01:17;22.80;1.00
506;DHT22;551;48.524;9.056;2023-08-12T06:03:43;23.00;1.00
506;DHT22;551;48.524;9.056;2023-08-12T06:06:08;23.50;1.00
506;DHT22;551;48.524;9.056;2023-08-12T06:08:34;23.70;1.00
506;DHT22;551;48.524;9.056;2023-08-12T06:11:00;24.30;1.00
506;DHT22;551;48.524;9.056;2023-08-12T06:13:25;25.00;1.00
506;DHT22;551;48.524;9.056;2023-08-12T06:15:51;25.70;1.00
506;DHT22;551;48.524;9.056;2023-08-12T06:18:16;26.60;1.00
506;DHT22;551;48.524;9.056;2023-08-12T06:20:42;27.90;1.00
506;DHT22;551;48.524;9.056;2023-08-12T06:23:07;28.60;1.00
506;DHT22;551;48.524;9.056;2023-08-12T06:25:33;29.20;1.00
506;DHT22;551;48.524;9.056;2023-08-12T06:27:58;30.30;1.00
506;DHT22;551;48.524;9.056;2023-08-12T06:30:24;31.50;1.00
506;DHT22;551;48.524;9.056;2023-08-12T06:32:50;32.10;1.00
506;DHT22;551;48.524;9.056;2023-08-12T06:35:15;32.70;1.00
506;DHT22;551;48.524;9.056;2023-08-12T06:37:41;32.90;1.00
506;DHT22;551;48.524;9.056;2023-08-12T06:40:07;32.10;1.00
506;DHT22;551;48.524;9.056;2023-08-12T06:42:33;30.90;1.00
506;DHT22;551;48.524;9.056;2023-08-12T06:44:59;30.10;1.00
506;DHT22;551;48.524;9.056;2023-08-12T06:47:25;29.20;1.00
506;DHT22;551;48.524;9.056;2023-08-12T06:49:52;28.40;1.00
506;DHT22;551;48.524;9.056;2023-08-12T06:52:18;27.90;1.00
506;DHT22;551;48.524;9.056;2023-08-12T06:54:44;27.30;1.00
506;DHT22;551;48.524;9.056;2023-08-12T06:57:09;26.90;1.00
506;DHT22;551;48.524;9.056;2023-08-12T06:59:37;27.20;1.00
506;DHT22;551;48.524;9.056;2023-08-12T07:02:02;28.60;1.00
506;DHT22;551;48.524;9.056;2023-08-12T07:04:28;30.70;1.00
506;DHT22;551;48.524;9.056;2023-08-12T07:06:53;33.00;1.00
506;DHT22;551;48.524;9.056;2023-08-12T07:09:19;35.40;1.00
506;DHT22;551;48.524;9.056;2023-08-12T07:11:44;37.20;1.00
506;DHT22;551;48.524;9.056;2023-08-12T07:14:10;39.00;1.00
506;DHT22;551;48.524;9.056;2023-08-12T07:16:37;40.20;1.00
506;DHT22;551;48.524;9.056;2023-08-12T07:19:02;40.00;1.00
506;DHT22;551;48.524;9.056;2023-08-12T07:21:28;40.20;1.00
506;DHT22;551;48.524;9.056;2023-08-12T07:23:53;40.30;1.00
506;DHT22;551;48.524;9.056;2023-08-12T07:26:19;41.50;1.00
506;DHT22;551;48.524;9.056;2023-08-12T07:28:44;42.60;1.00
506;DHT22;551;48.524;9.056;2023-08-12T07:31:10;43.60;1.00
506;DHT22;551;48.524;9.056;2023-08-12T07:33:35;44.50;1.00
506;DHT22;551;48.524;9.056;2023-08-12T07:36:01;45.40;1.00
506;DHT22;551;48.524;9.056;2023-08-12T07:38:27;46.30;1.00
506;DHT22;551;48.524;9.056;2023-08-12T07:40:53;46.50;1.00
506;DHT22;551;48.524;9.056;2023-08-12T07:43:19;47.00;1.00
506;DHT22;551;48.524;9.056;2023-08-12T07:45:44;48.00;1.00
506;DHT22;551;48.524;9.056;2023-08-12T07:48:10;48.50;1.00
506;DHT22;551;48.524;9.056;2023-08-12T07:50:35;47.30;1.00
506;DHT22;551;48.524;9.056;2023-08-12T07:53:01;46.80;1.00
506;DHT22;551;48.524;9.056;2023-08-12T07:55:27;47.40;1.00
506;DHT22;551;48.524;9.056;2023-08-12T07:57:53;48.00;1.00
506;DHT22;551;48.524;9.056;2023-08-12T08:00:18;47.40;1.00
506;DHT22;551;48.524;9.056;2023-08-12T08:02:44;46.30;1.00
506;DHT22;551;48.524;9.056;2023-08-12T08:05:10;45.40;1.00
506;DHT22;551;48.524;9.056;2023-08-12T08:07:36;44.20;1.00
506;DHT22;551;48.524;9.056;2023-08-12T08:10:01;42.40;1.00
506;DHT22;551;48.524;9.056;2023-08-12T08:12:27;41.60;1.00
506;DHT22;551;48.524;9.056;2023-08-12T08:14:52;41.50;1.00
506;DHT22;551;48.524;9.056;2023-08-12T08:17:18;41.40;1.00
506;DHT22;551;48.524;9.056;2023-08-12T08:19:43;40.80;1.00
506;DHT22;551;48.524;9.056;2023-08-12T08:22:09;39.80;1.00
506;DHT22;551;48.524;9.056;2023-08-12T08:24:34;39.70;1.00
506;DHT22;551;48.524;9.056;2023-08-12T08:27:00;39.60;1.00
506;DHT22;551;48.524;9.056;2023-08-12T08:29:25;39.50;1.00
506;DHT22;551;48.524;9.056;2023-08-12T08:31:51;39.50;1.00
506;DHT22;551;48.524;9.056;2023-08-12T08:34:17;38.90;1.00
506;DHT22;551;48.524;9.056;2023-08-12T08:36:42;38.40;1.00
506;DHT22;551;48.524;9.056;2023-08-12T08:39:08;37.70;1.00
506;DHT22;551;48.524;9.056;2023-08-12T08:41:38;36.90;1.00
506;DHT22;551;48.524;9.056;2023-08-12T08:44:07;36.40;1.00
506;DHT22;551;48.524;9.056;2023-08-12T08:46:33;36.20;1.00
506;DHT22;551;48.524;9.056;2023-08-12T08:48:59;36.60;1.00
506;DHT22;551;48.524;9.056;2023-08-12T08:51:30;37.80;1.00
506;DHT22;551;48.524;9.056;2023-08-12T08:53:56;39.30;1.00
506;DHT22;551;48.524;9.056;2023-08-12T08:56:23;41.00;1.00
506;DHT22;551;48.524;9.056;2023-08-12T08:58:49;40.60;1.00
506;DHT22;551;48.524;9.056;2023-08-12T09:01:15;39.80;1.00
506;DHT22;551;48.524;9.056;2023-08-12T09:03:43;39.10;1.00
506;DHT22;551;48.524;9.056;2023-08-12T09:06:09;39.00;1.00
506;DHT22;551;48.524;9.056;2023-08-12T09:08:36;38.60;1.00
506;DHT22;551;48.524;9.056;2023-08-12T09:11:02;37.80;1.00
506;DHT22;551;48.524;9.056;2023-08-12T09:13:29;37.60;1.00
506;DHT22;551;48.524;9.056;2023-08-12T09:15:55;37.40;1.00
506;DHT22;551;48.524;9.056;2023-08-12T09:18:21;37.00;1.00
506;DHT22;551;48.524;9.056;2023-08-12T09:20:55;36.80;1.00
506;DHT22;551;48.524;9.056;2023-08-12T09:23:21;36.60;1.00
506;DHT22;551;48.524;9.056;2023-08-12T09:25:47;36.90;1.00
506;DHT22;551;48.524;9.056;2023-08-12T09:28:13;37.00;1.00
506;DHT22;551;48.524;9.056;2023-08-12T09:30:39;36.90;1.00
506;DHT22;551;48.524;9.056;2023-08-12T09:33:07;36.80;1.00
506;DHT22;551;48.524;9.056;2023-08-12T09:38:04;37.20;1.00
506;DHT22;551;48.524;9.056;2023-08-12T09:40:31;37.70;1.00
506;DHT22;551;48.524;9.056;2023-08-12T09:42:57;37.80;1.00
506;DHT22;551;48.524;9.056;2023-08-12T09:45:26;37.70;1.00
506;DHT22;551;48.524;9.056;2023-08-12T09:47:54;37.40;1.00
506;DHT22;551;48.524;9.056;2023-08-12T09:50:23;36.90;1.00
506;DHT22;551;48.524;9.056;2023-08-12T09:52:51;36.20;1.00
506;DHT22;551;48.524;9.056;2023-08-12T09:55:18;35.70;1.00
506;DHT22;551;48.524;9.056;2023-08-12T09:57:44;35.30;1.00
506;DHT22;551;48.524;9.056;2023-08-12T10:00:13;34.80;1.00
506;DHT22;551;48.524;9.056;2023-08-12T10:02:43;34.60;1.00
506;DHT22;551;48.524;9.056;2023-08-12T10:05:11;34.30;1.00
506;DHT22;551;48.524;9.056;2023-08-12T10:07:38;34.10;1.00
506;DHT22;551;48.524;9.056;2023-08-12T10:10:06;34.00;1.00
506;DHT22;551;48.524;9.056;2023-08-12T10:12:33;33.90;1.00
506;DHT22;551;48.524;9.056;2023-08-12T10:15:00;33.80;1.00
506;DHT22;551;48.524;9.056;2023-08-12T10:17:26;33.70;1.00
506;DHT22;551;48.524;9.056;2023-08-12T10:19:56;33.90;1.00
506;DHT22;551;48.524;9.056;2023-08-12T10:22:24;34.00;1.00
506;DHT22;551;48.524;9.056;2023-08-12T10:24:51;34.20;1.00
506;DHT22;551;48.524;9.056;2023-08-12T10:27:17;34.20;1.00
506;DHT22;551;48.524;9.056;2023-08-12T10:29:44;34.10;1.00
506;DHT22;551;48.524;9.056;2023-08-12T10:32:11;34.00;1.00
506;DHT22;551;48.524;9.056;2023-08-12T10:34:36;33.90;1.00
506;DHT22;551;48.524;9.056;2023-08-12T10:37:02;33.70;1.00
506;DHT22;551;48.524;9.056;2023-08-12T10:39:29;34.20;1.00
506;DHT22;551;48.524;9.056;2023-08-12T10:41:56;35.80;1.00
506;DHT22;551;48.524;9.056;2023-08-12T10:44:27;37.40;1.00
506;DHT22;551;48.524;9.056;2023-08-12T10:46:53;38.50;1.00
506;DHT22;551;48.524;9.056;2023-08-12T10:49:20;40.30;1.00
506;DHT22;551;48.524;9.056;2023-08-12T10:51:51;41.80;1.00
506;DHT22;551;48.524;9.056;2023-08-12T10:54:25;43.60;1.00
506;DHT22;551;48.524;9.056;2023-08-12T11:02:26;43.40;1.00
506;DHT22;551;48.524;9.056;2023-08-12T11:07:47;43.00;1.00
506;DHT22;551;48.524;9.056;2023-08-12T11:10:22;44.00;1.00
506;DHT22;551;48.524;9.056;2023-08-12T11:15:36;44.80;1.00
506;DHT22;551;48.524;9.056;2023-08-12T11:18:03;45.30;1.00
506;DHT22;551;48.524;9.056;2023-08-12T11:20:30;45.50;1.00
506;DHT22;551;48.524;9.056;2023-08-12T11:22:56;45.30;1.00
506;DHT22;551;48.524;9.056;2023-08-12T11:25:23;45.20;1.00
506;DHT22;551;48.524;9.056;2023-08-12T11:27:49;45.10;1.00
506;DHT22;551;48.524;9.056;2023-08-12T11:30:17;45.10;1.00
506;DHT22;551;48.524;9.056;2023-08-12T11:32:43;45.00;1.00
506;DHT22;551;48.524;9.056;2023-08-12T11:35:10;45.20;1.00
506;DHT22;551;48.524;9.056;2023-08-12T11:37:37;44.80;1.00
506;DHT22;551;48.524;9.056;2023-08-12T11:40:04;44.30;1.00
506;DHT22;551;48.524;9.056;2023-08-12T11:42:30;43.20;1.00
506;DHT22;551;48.524;9.056;2023-08-12T11:44:56;42.10;1.00
506;DHT22;551;48.524;9.056;2023-08-12T11:47:22;40.90;1.00
506;DHT22;551;48.524;9.056;2023-08-12T11:49:47;39.80;1.00
506;DHT22;551;48.524;9.056;2023-08-12T11:52:13;38.90;1.00
506;DHT22;551;48.524;9.056;2023-08-12T11:54:40;38.20;1.00
506;DHT22;551;48.524;9.056;2023-08-12T11:57:06;37.20;1.00
506;DHT22;551;48.524;9.056;2023-08-12T11:59:31;36.60;1.00
506;DHT22;551;48.524;9.056;2023-08-12T12:01:57;35.90;1.00
506;DHT22;551;48.524;9.056;2023-08-12T12:04:22;35.20;1.00
506;DHT22;551;48.524;9.056;2023-08-12T12:06:48;34.70;1.00
506;DHT22;551;48.524;9.056;2023-08-12T12:09:15;34.40;1.00
506;DHT22;551;48.524;9.056;2023-08-12T12:11:43;34.20;1.00
506;DHT22;551;48.524;9.056;2023-08-12T12:14:10;33.90;1.00
506;DHT22;551;48.524;9.056;2023-08-12T12:16:40;33.60;1.00
506;DHT22;551;48.524;9.056;2023-08-12T12:19:17;33.30;1.00
506;DHT22;551;48.524;9.056;2023-08-12T12:21:46;33.10;1.00
506;DHT22;551;48.524;9.056;2023-08-12T12:24:11;32.80;1.00
506;DHT22;551;48.524;9.056;2023-08-12T12:26:37;32.50;1.00
506;DHT22;551;48.524;9.056;2023-08-12T12:29:05;32.10;1.00
506;DHT22;551;48.524;9.056;2023-08-12T12:31:32;31.70;1.00
506;DHT22;551;48.524;9.056;2023-08-12T12:33:59;31.30;1.00
506;DHT22;551;48.524;9.056;2023-08-12T12:36:24;30.90;1.00
506;DHT22;551;48.524;9.056;2023-08-12T12:38:50;30.50;1.00
506;DHT22;551;48.524;9.056;2023-08-12T12:41:15;30.00;1.00
506;DHT22;551;48.524;9.056;2023-08-12T12:43:41;29.60;1.00
506;DHT22;551;48.524;9.056;2023-08-12T12:46:06;29.20;1.00
506;DHT22;551;48.524;9.056;2023-08-12T12:48:33;28.40;1.00
506;DHT22;551;48.524;9.056;2023-08-12T12:50:58;27.60;1.00
506;DHT22;551;48.524;9.056;2023-08-12T12:53:24;26.80;1.00
506;DHT22;551;48.524;9.056;2023-08-12T12:55:49;26.30;1.00
506;DHT22;551;48.524;9.056;2023-08-12T12:58:15;26.00;1.00
506;DHT22;551;48.524;9.056;2023-08-12T13:00:41;25.70;1.00
506;DHT22;551;48.524;9.056;2023-08-12T13:03:07;25.40;1.00
506;DHT22;551;48.524;9.056;2023-08-12T13:05:32;25.20;1.00
506;DHT22;551;48.524;9.056;2023-08-12T13:07:58;25.10;1.00
506;DHT22;551;48.524;9.056;2023-08-12T13:10:23;24.90;1.00
506;DHT22;551;48.524;9.056;2023-08-12T13:12:49;24.70;1.00
506;DHT22;551;48.524;9.056;2023-08-12T13:15:15;24.70;1.00
506;DHT22;551;48.524;9.056;2023-08-12T13:17:40;24.60;1.00
506;DHT22;551;48.524;9.056;2023-08-12T13:20:06;24.70;1.00
506;DHT22;551;48.524;9.056;2023-08-12T13:22:32;24.80;1.00
506;DHT22;551;48.524;9.056;2023-08-12T13:24:58;24.90;1.00
506;DHT22;551;48.524;9.056;2023-08-12T13:27:23;25.10;1.00
506;DHT22;551;48.524;9.056;2023-08-12T13:29:49;25.40;1.00
506;DHT22;551;48.524;9.056;2023-08-12T13:32:14;25.70;1.00
506;DHT22;551;48.524;9.056;2023-08-12T13:34:40;26.20;1.00
506;DHT22;551;48.524;9.056;2023-08-12T13:37:05;26.70;1.00
506;DHT22;551;48.524;9.056;2023-08-12T13:39:31;27.20;1.00
506;DHT22;551;48.524;9.056;2023-08-12T13:41:56;27.50;1.00
506;DHT22;551;48.524;9.056;2023-08-12T13:44:22;27.80;1.00
506;DHT22;551;48.524;9.056;2023-08-12T13:46:47;28.20;1.00
506;DHT22;551;48.524;9.056;2023-08-12T13:49:13;28.80;1.00
506;DHT22;551;48.524;9.056;2023-08-12T13:51:38;29.30;1.00
506;DHT22;551;48.524;9.056;2023-08-12T13:54:04;29.80;1.00
506;DHT22;551;48.524;9.056;2023-08-12T13:56:30;30.10;1.00
506;DHT22;551;48.524;9.056;2023-08-12T13:58:55;30.10;1.00
506;DHT22;551;48.524;9.056;2023-08-12T14:01:21;30.10;1.00
506;DHT22;551;48.524;9.056;2023-08-12T14:03:47;30.10;1.00
506;DHT22;551;48.524;9.056;2023-08-12T14:06:12;30.10;1.00
506;DHT22;551;48.524;9.056;2023-08-12T14:08:38;30.30;1.00
506;DHT22;551;48.524;9.056;2023-08-12T14:11:03;30.40;1.00
506;DHT22;551;48.524;9.056;2023-08-12T14:13:29;30.40;1.00
506;DHT22;551;48.524;9.056;2023-08-12T14:15:54;30.50;1.00
506;DHT22;551;48.524;9.056;2023-08-12T14:18:20;30.30;1.00
506;DHT22;551;48.524;9.056;2023-08-12T14:20:45;30.10;1.00
506;DHT22;551;48.524;9.056;2023-08-12T14:23:11;29.90;1.00
506;DHT22;551;48.524;9.056;2023-08-12T14:25:36;29.70;1.00
506;DHT22;551;48.524;9.056;2023-08-12T14:28:02;29.70;1.00
506;DHT22;551;48.524;9.056;2023-08-12T14:30:28;29.50;1.00
506;DHT22;551;48.524;9.056;2023-08-12T14:32:53;29.20;1.00
506;DHT22;551;48.524;9.056;2023-08-12T14:35:19;29.10;1.00
506;DHT22;551;48.524;9.056;2023-08-12T14:37:45;28.80;1.00
506;DHT22;551;48.524;9.056;2023-08-12T14:40:11;28.70;1.00
506;DHT22;551;48.524;9.056;2023-08-12T14:42:36;28.60;1.00
506;DHT22;551;48.524;9.056;2023-08-12T14:45:02;28.60;1.00
506;DHT22;551;48.524;9.056;2023-08-12T14:47:28;28.60;1.00
506;DHT22;551;48.524;9.056;2023-08-12T14:49:53;28.60;1.00
506;DHT22;551;48.524;9.056;2023-08-12T14:52:20;28.70;1.00
506;DHT22;551;48.524;9.056;2023-08-12T14:54:46;28.60;1.00
506;DHT22;551;48.524;9.056;2023-08-12T14:57:12;28.60;1.00
506;DHT22;551;48.524;9.056;2023-08-12T14:59:37;28.60;1.00
506;DHT22;551;48.524;9.056;2023-08-12T15:02:03;28.60;1.00
506;DHT22;551;48.524;9.056;2023-08-12T15:04:29;28.60;1.00
506;DHT22;551;48.524;9.056;2023-08-12T15:06:55;28.70;1.00
506;DHT22;551;48.524;9.056;2023-08-12T15:09:20;28.80;1.00
506;DHT22;551;48.524;9.056;2023-08-12T15:11:46;28.80;1.00
506;DHT22;551;48.524;9.056;2023-08-12T15:14:11;28.90;1.00
506;DHT22;551;48.524;9.056;2023-08-12T15:16:37;28.90;1.00
506;DHT22;551;48.524;9.056;2023-08-12T15:19:03;29.00;1.00
506;DHT22;551;48.524;9.056;2023-08-12T15:21:29;29.00;1.00
506;DHT22;551;48.524;9.056;2023-08-12T15:23:55;29.00;1.00
506;DHT22;551;48.524;9.056;2023-08-12T15:26:21;29.00;1.00
506;DHT22;551;48.524;9.056;2023-08-12T15:28:48;29.00;1.00
506;DHT22;551;48.524;9.056;2023-08-12T15:31:14;29.10;1.00
506;DHT22;551;48.524;9.056;2023-08-12T15:33:40;29.10;1.00
506;DHT22;551;48.524;9.056;2023-08-12T15:36:06;29.30;1.00
506;DHT22;551;48.524;9.056;2023-08-12T15:38:32;29.30;1.00
506;DHT22;551;48.524;9.056;2023-08-12T15:40:59;29.30;1.00
506;DHT22;551;48.524;9.056;2023-08-12T15:43:25;29.30;1.00
506;DHT22;551;48.524;9.056;2023-08-12T15:45:51;29.30;1.00
506;DHT22;551;48.524;9.056;2023-08-12T15:48:16;29.20;1.00
506;DHT22;551;48.524;9.056;2023-08-12T15:50:43;29.00;1.00
506;DHT22;551;48.524;9.056;2023-08-12T15:53:09;29.00;1.00
506;DHT22;551;48.524;9.056;2023-08-12T15:55:35;28.90;1.00
506;DHT22;551;48.524;9.056;2023-08-12T15:58:00;28.80;1.00
506;DHT22;551;48.524;9.056;2023-08-12T16:00:26;28.60;1.00
506;DHT22;551;48.524;9.056;2023-08-12T16:02:51;28.50;1.00
506;DHT22;551;48.524;9.056;2023-08-12T16:05:17;28.50;1.00
506;DHT22;551;48.524;9.056;2023-08-12T16:07:42;28.40;1.00
506;DHT22;551;48.524;9.056;2023-08-12T16:10:08;28.30;1.00
506;DHT22;551;48.524;9.056;2023-08-12T16:12:34;28.30;1.00
506;DHT22;551;48.524;9.056;2023-08-12T16:15:01;28.30;1.00
506;DHT22;551;48.524;9.056;2023-08-12T16:17:26;28.30;1.00
506;DHT22;551;48.524;9.056;2023-08-12T16:19:52;28.20;1.00
506;DHT22;551;48.524;9.056;2023-08-12T16:22:18;28.20;1.00
506;DHT22;551;48.524;9.056;2023-08-12T16:24:43;28.20;1.00
506;DHT22;551;48.524;9.056;2023-08-12T16:27:09;28.30;1.00
506;DHT22;551;48.524;9.056;2023-08-12T16:29:34;28.20;1.00
506;DHT22;551;48.524;9.056;2023-08-12T16:32:00;28.10;1.00
506;DHT22;551;48.524;9.056;2023-08-12T16:34:26;28.10;1.00
506;DHT22;551;48.524;9.056;2023-08-12T16:36:51;27.60;1.00
506;DHT22;551;48.524;9.056;2023-08-12T16:39:17;27.00;1.00
506;DHT22;551;48.524;9.056;2023-08-12T16:41:42;26.40;1.00
506;DHT22;551;48.524;9.056;2023-08-12T16:44:08;26.00;1.00
506;DHT22;551;48.524;9.056;2023-08-12T16:46:33;25.80;1.00
506;DHT22;551;48.524;9.056;2023-08-12T16:48:59;25.40;1.00
506;DHT22;551;48.524;9.056;2023-08-12T16:51:26;25.10;1.00
506;DHT22;551;48.524;9.056;2023-08-12T16:53:51;25.00;1.00
506;DHT22;551;48.524;9.056;2023-08-12T16:56:17;24.80;1.00
506;DHT22;551;48.524;9.056;2023-08-12T16:58:42;24.80;1.00
506;DHT22;551;48.524;9.056;2023-08-12T17:01:08;24.70;1.00